x

Cape Elizabeth- 45nm Nw Of Aberdeen, Wa (46041) Wave Buoy

6:50pm - Wed 23rd Apr 2014 All times are PDT. -7 hours from GMT.

  • Sig Wave height 7.9ft
  • Peak Period 11s
  • Average Period 7s
  • Wind
    18mph, 20mph gusts
  • Sea Temp 50°f
  • Sea Pressure 1003.9mb
  • Cape Elizabeth- 45nm Nw Of Aberdeen, Wa
  • Cape Elizabeth- 45nm Nw Of Aberdeen, Wa

More Historic Weather Station data

Upgrade to MSW Pro to gain access to the past 30 days of data for over 8000 Wavebouys and Weather Stations around the globe.

Join Pro

Comparision Forecast

View Surf forecast
   
Wed 04/23 6:50pm 8ft 11s 7s 18 20 mph 1003.9mb 50f
5:50pm 8ft 12s 6s 25 29 mph 1004.8mb 50f
3:50pm 8.5ft 11s 7s 22 27 mph 1007.4mb 50f
2:50pm 8.5ft 11s 7s 18 20 mph 1008.9mb 50f
1:50pm 9.5ft 11s 8s 16 18 mph 1009.7mb 50f
12:50pm 9ft 10s 7s 18 22 mph 1010.1mb 50f
11:50am 11ft 11s 8s 13 16 mph 1010.4mb 50f
10:50am 9.5ft 12s 8s 7 9 mph 1010.5mb 49f
9:50am 10ft 13s 8s 7 9 mph 1010.3mb 49f
8:50am 10.5ft 12s 8s 4 9 mph 1010.4mb 49f
7:50am 11ft 13s 8s 4 7 mph 1010.4mb 49f
6:50am 10ft 13s 8s 9 11 mph 1010.4mb 49f
5:50am 9ft 13s 7s 9 13 mph 1010.2mb 49f
4:50am 9ft 14s 7s 13 18 mph 1010.1mb 49f
3:50am 9ft 13s 7s 18 20 mph 1010.1mb 50f
2:50am 9ft 14s 8s 11 16 mph 1010.1mb 50f
1:50am 11ft 14s 8s 18 22 mph 1010mb 50f
12:50am 10ft 13s 8s 18 20 mph 1009.9mb 50f
Tue 04/22 11:50pm 11.5ft 13s 8s 18 20 mph 1009.8mb 49f
10:50pm 11.5ft 14s 9s 16 18 mph 1009.4mb 49f
9:50pm 10.5ft 13s 8s 16 18 mph 1009.6mb 49f
8:50pm 9.5ft 13s 7s 16 18 mph 1009.3mb 49f
7:50pm 10ft 13s 7s 16 22 mph 1009.1mb 50f
6:50pm 8.5ft 13s 6s 18 22 mph 1009.3mb 50f
5:50pm 8.5ft 13s 7s 20 25 mph 1009.5mb 50f
4:50pm 8ft 14s 7s 18 22 mph 1010.2mb 50f
3:50pm 8ft 12s 7s 20 25 mph 1011mb 50f
2:50pm 8.5ft 13s 8s 22 29 mph 1011.3mb 50f
1:50pm 7ft 12s 7s 18 22 mph 1011.2mb 50f
12:50pm 8.5ft 12s 9s 13 16 mph 1011.5mb 50f
11:50am 9ft 13s 9s 13 16 mph 1011.8mb 50f
10:50am 9ft 13s 9s 11 13 mph 1011.7mb 49f
9:50am 9ft 13s 9s 9 11 mph 1011.7mb 49f
8:50am 9.5ft 12s 9s 7 11 mph 1011.7mb 49f
7:50am 9.5ft 12s 9s 9 11 mph 1011.9mb 49f
6:50am 9ft 13s 8s 7 9 mph 1011.8mb 49f
5:50am 9ft 11s 8s 11 16 mph 1011.7mb 49f
4:50am 8.5ft 11s 8s 13 16 mph 1011.7mb 49f
3:50am 9ft 11s 8s 13 16 mph 1011.8mb 49f
2:50am 9.5ft 12s 8s 13 18 mph 1012mb 49f
1:50am 9.5ft 12s 9s 16 18 mph 1011.9mb 49f
12:50am 9.5ft 13s 9s 16 18 mph 1012.1mb 49f
Mon 04/21 11:50pm 9.5ft 14s 9s 16 20 mph 1012.1mb 49f
10:50pm 8.5ft 13s 8s 13 16 mph 1012.4mb 49f
9:50pm 11ft 13s 9s 13 16 mph 1012.5mb 49f
8:50pm 10.5ft 14s 9s 11 13 mph 1012.8mb 50f
7:50pm 10ft 14s 9s 11 13 mph 1013mb 50f
6:50pm 11ft 13s 9s 11 13 mph 1013.3mb 50f
5:50pm 9.5ft 14s 8s 13 18 mph 1013.8mb 50f
4:50pm 9.5ft 13s 9s 13 16 mph 1014.4mb 50f
3:50pm 9.5ft 14s 9s 11 13 mph 1014.3mb 50f
2:50pm 12ft 13s 10s 11 13 mph 1014.5mb 50f
1:50pm 12ft 12s 10s 7 11 mph 1015.4mb 50f
12:50pm 12ft 12s 10s 7 9 mph 1015.6mb 50f
11:50am 12ft 13s 10s 7 9 mph 1016.1mb 49f
10:50am 12ft 14s 10s 4 9 mph 1016.4mb 49f
9:50am 13.5ft 13s 10s 7 9 mph 1016.4mb 50f
8:50am 14ft 14s 11s 9 11 mph 1016.7mb 50f
7:50am 11ft 14s 10s 9 11 mph 1017mb 50f
6:50am 9ft 12s 9s 7 9 mph 1017.1mb 50f
5:50am 11ft 14s 10s 7 9 mph 1017.4mb 51f
4:50am 10.5ft 14s 9s 9 11 mph 1017.8mb 51f
3:50am 11ft 14s 9s 7 9 mph 1018.3mb 51f
2:50am 11.5ft 14s 9s 4 9 mph 1018.7mb 51f
1:50am 13.5ft 14s 10s 9 13 mph 1019.2mb 51f
12:50am 14ft 14s 9s 11 13 mph 1019.2mb 51f
Sun 04/20 11:50pm 15ft 14s 10s 18 22 mph 1019mb 51f
10:50pm 14ft 14s 9s 20 22 mph 1019.3mb 51f
9:50pm 14ft 14s 9s 18 22 mph 1019.8mb 51f
8:50pm 15ft 15s 10s 18 22 mph 1019.6mb 51f
7:50pm 16ft 14s 11s 16 20 mph 1020mb 51f
6:50pm 13ft 15s 9s 16 18 mph 1020.5mb 51f
5:50pm 13ft 14s 9s 16 18 mph 1021.1mb 51f
3:50pm 16.5ft 15s 10s 18 22 mph 1021.7mb 51f
2:50pm 18ft 15s 11s 18 25 mph 1022.5mb 51f
1:50pm 19.5ft 16s 11s 20 25 mph 1022.6mb 51f
12:50pm 18ft 16s 11s 20 27 mph 1023mb 50f
11:50am 17.5ft 15s 10s 20 27 mph 1023.4mb 50f
10:50am 17.5ft 16s 11s 20 27 mph 1023.3mb 50f
9:50am 18.5ft 16s 11s 20 25 mph 1023.3mb 50f
8:50am 19ft 16s 11s 20 25 mph 1023.2mb 50f
7:50am 20.5ft 17s 11s 16 22 mph 1023mb 50f
6:50am 22.5ft 17s 12s 16 18 mph 1022.7mb 50f
5:50am 16.5ft 17s 10s 13 16 mph 1022.6mb 50f
4:50am 18.5ft 16s 11s 11 16 mph 1022.9mb 50f
3:50am 18.5ft 16s 11s 7 9 mph 1022.8mb 50f
2:50am 18ft 16s 10s 7 13 mph 1022.7mb 50f